createdAt,value
2018-08-23T00:00:43.924Z,21.34
2018-08-23T00:01:43.910Z,21.39
2018-08-23T00:02:43.900Z,21.44
2018-08-23T00:03:44.113Z,21.41
2018-08-23T00:04:43.618Z,21.35
2018-08-23T00:05:43.867Z,21.35
2018-08-23T00:06:44.129Z,21.23
2018-08-23T00:07:43.854Z,21.36
2018-08-23T00:08:43.891Z,21.26
2018-08-23T00:09:43.877Z,21.21
2018-08-23T00:10:44.098Z,21.29
2018-08-23T00:11:43.827Z,21.23
2018-08-23T00:12:43.826Z,21.21
2018-08-23T00:13:44.150Z,21.26
2018-08-23T00:14:43.788Z,21.13
2018-08-23T00:15:43.518Z,21.13
2018-08-23T00:16:43.924Z,21.09
2018-08-23T00:17:44.027Z,21.13
2018-08-23T00:18:43.493Z,21.13
2018-08-23T00:19:43.478Z,21.13
2018-08-23T00:20:43.468Z,21.06
2018-08-23T00:21:43.728Z,21.08
2018-08-23T00:22:43.714Z,21.04
2018-08-23T00:23:43.726Z,21.09
2018-08-23T00:24:43.435Z,21.05
2018-08-23T00:25:43.684Z,20.99
2018-08-23T00:26:43.686Z,20.98
2018-08-23T00:27:43.672Z,20.93
2018-08-23T00:28:43.661Z,20.91
2018-08-23T00:29:43.922Z,20.83
2018-08-23T00:30:43.908Z,20.84
2018-08-23T00:31:43.646Z,20.87
2018-08-23T00:32:43.893Z,20.87
2018-08-23T00:33:43.617Z,20.79
2018-08-23T00:34:43.882Z,20.79
2018-08-23T00:35:43.599Z,20.8
2018-08-23T00:36:43.846Z,20.81
2018-08-23T00:37:43.576Z,20.84
2018-08-23T00:38:43.567Z,20.77
2018-08-23T00:39:43.562Z,20.8
2018-08-23T00:40:43.550Z,20.74
2018-08-23T00:41:43.801Z,20.8
2018-08-23T00:42:43.268Z,20.74
2018-08-23T00:43:43.255Z,20.76
2018-08-23T00:44:43.773Z,20.79
2018-08-23T00:45:43.510Z,20.8
2018-08-23T00:46:43.766Z,20.8
2018-08-23T00:47:43.483Z,20.68
2018-08-23T00:48:43.255Z,20.8
2018-08-23T00:49:43.466Z,20.77
2018-08-23T00:50:43.457Z,20.71
2018-08-23T00:51:43.716Z,20.66
2018-08-23T00:52:43.698Z,20.66
2018-08-23T00:53:43.631Z,20.66
2018-08-23T00:54:43.422Z,20.72
2018-08-23T00:55:43.149Z,20.59
2018-08-23T00:56:43.138Z,20.58
2018-08-23T00:57:43.124Z,20.65
2018-08-23T00:58:43.374Z,20.66
2018-08-23T00:59:43.637Z,20.59
2018-08-23T01:00:43.362Z,20.51
2018-08-23T01:01:43.085Z,20.5
2018-08-23T01:02:43.075Z,20.47
2018-08-23T01:03:43.606Z,20.51
2018-08-23T01:04:43.321Z,20.47
2018-08-23T01:05:43.578Z,20.53
2018-08-23T01:06:43.565Z,20.41
2018-08-23T01:07:43.564Z,20.47
2018-08-23T01:08:43.028Z,20.43
2018-08-23T01:09:43.540Z,20.42
2018-08-23T01:10:42.997Z,20.35
2018-08-23T01:11:43.263Z,20.35
2018-08-23T01:12:43.251Z,20.42
2018-08-23T01:13:42.975Z,20.39
2018-08-23T01:14:43.223Z,20.41
2018-08-23T01:15:43.481Z,20.39
2018-08-23T01:16:43.478Z,20.34
2018-08-23T01:17:43.460Z,20.28
2018-08-23T01:18:42.932Z,20.25
2018-08-23T01:19:43.173Z,20.3
2018-08-23T01:20:43.434Z,20.27
2018-08-23T01:21:43.421Z,20.31
2018-08-23T01:22:43.149Z,20.24
2018-08-23T01:23:43.406Z,20.23
2018-08-23T01:24:43.391Z,20.23
2018-08-23T01:25:43.126Z,20.27
2018-08-23T01:26:43.107Z,20.23
2018-08-23T01:27:42.834Z,20.25
2018-08-23T01:28:43.353Z,20.21
2018-08-23T01:29:43.350Z,20.25
2018-08-23T01:30:43.329Z,20.27
2018-08-23T01:31:43.324Z,20.23
2018-08-23T01:32:43.313Z,20.18
2018-08-23T01:33:42.787Z,20.24
2018-08-23T01:34:43.037Z,20.16
2018-08-23T01:35:43.021Z,20.08
2018-08-23T01:36:43.274Z,20.2
2018-08-23T01:37:43.001Z,20.13
2018-08-23T01:38:43.255Z,20.08
2018-08-23T01:39:43.244Z,20.02
2018-08-23T01:40:43.232Z,20.08
2018-08-23T01:41:43.239Z,20.02
2018-08-23T01:42:42.737Z,20.02
2018-08-23T01:43:42.945Z,19.97
2018-08-23T01:44:42.943Z,19.91
2018-08-23T01:45:43.190Z,19.95
2018-08-23T01:46:43.182Z,19.98
2018-08-23T01:47:42.901Z,20
2018-08-23T01:48:42.890Z,19.91
2018-08-23T01:49:42.889Z,19.88
2018-08-23T01:50:42.615Z,19.75
2018-08-23T01:51:42.868Z,19.87
2018-08-23T01:52:42.853Z,19.8
2018-08-23T01:53:42.847Z,19.8
2018-08-23T01:54:42.837Z,19.8
2018-08-23T01:55:42.832Z,19.75
2018-08-23T01:56:42.824Z,19.75
2018-08-23T01:57:42.805Z,19.75
2018-08-23T01:58:42.800Z,19.66
2018-08-23T01:59:42.801Z,19.73
2018-08-23T02:00:42.782Z,19.7
2018-08-23T02:01:42.772Z,19.7
2018-08-23T02:02:42.752Z,19.61
2018-08-23T02:03:42.481Z,19.69
2018-08-23T02:04:42.996Z,19.61
2018-08-23T02:05:42.990Z,19.6
2018-08-23T02:06:42.710Z,19.66
2018-08-23T02:07:42.968Z,19.58
2018-08-23T02:08:42.432Z,19.61
2018-08-23T02:09:42.420Z,19.63
2018-08-23T02:10:42.410Z,19.6
2018-08-23T02:11:42.400Z,19.53
2018-08-23T02:12:42.659Z,19.57
2018-08-23T02:13:42.652Z,19.6
2018-08-23T02:14:42.636Z,19.42
2018-08-23T02:15:42.884Z,19.48
2018-08-23T02:16:42.611Z,19.54
2018-08-23T02:17:42.600Z,19.43
2018-08-23T02:18:42.595Z,19.47
2018-08-23T02:19:42.587Z,19.39
2018-08-23T02:20:42.571Z,19.38
2018-08-23T02:21:42.302Z,19.39
2018-08-23T02:22:42.292Z,19.43
2018-08-23T02:23:42.274Z,19.36
2018-08-23T02:24:42.542Z,19.35
2018-08-23T02:25:42.271Z,19.46
2018-08-23T02:26:42.776Z,19.33
2018-08-23T02:27:42.234Z,19.4
2018-08-23T02:28:42.230Z,19.43
2018-08-23T02:29:42.741Z,19.38
2018-08-23T02:30:42.470Z,19.35
2018-08-23T02:31:42.193Z,19.32
2018-08-23T02:32:42.715Z,19.36
2018-08-23T02:33:42.700Z,19.32
2018-08-23T02:34:42.166Z,19.33
2018-08-23T02:35:42.688Z,19.32
2018-08-23T02:36:42.410Z,19.35
2018-08-23T02:37:42.395Z,19.32
2018-08-23T02:38:42.394Z,19.31
2018-08-23T02:39:42.381Z,19.32
2018-08-23T02:40:42.366Z,19.31
2018-08-23T02:41:42.361Z,19.32
2018-08-23T02:42:42.349Z,19.28
2018-08-23T02:43:42.070Z,19.33
2018-08-23T02:44:42.536Z,19.24
2018-08-23T02:45:42.317Z,19.23
2018-08-23T02:46:42.047Z,19.18
2018-08-23T02:47:42.578Z,19.2
2018-08-23T02:48:42.558Z,19.17
2018-08-23T02:49:42.013Z,19.21
2018-08-23T02:50:42.261Z,19.21
2018-08-23T02:51:42.256Z,19.14
2018-08-23T02:52:42.240Z,19.11
2018-08-23T02:53:42.638Z,19.11
2018-08-23T02:54:42.232Z,19.15
2018-08-23T02:55:42.478Z,19.13
2018-08-23T02:56:42.465Z,19.1
2018-08-23T02:57:41.934Z,19.08
2018-08-23T02:58:42.446Z,19.13
2018-08-23T02:59:42.167Z,19.06
2018-08-23T03:00:42.712Z,19.02
2018-08-23T03:01:42.157Z,18.99
2018-08-23T03:02:41.880Z,18.98
2018-08-23T03:03:41.858Z,18.98
2018-08-23T03:04:41.852Z,18.9
2018-08-23T03:05:42.371Z,18.94
2018-08-23T03:06:42.374Z,18.91
2018-08-23T03:07:42.348Z,18.94
2018-08-23T03:08:42.343Z,18.84
2018-08-23T03:09:42.335Z,18.92
2018-08-23T03:10:42.057Z,18.91
2018-08-23T03:11:42.044Z,18.86
2018-08-23T03:12:42.035Z,18.9
2018-08-23T03:13:42.029Z,18.79
2018-08-23T03:14:42.297Z,18.8
2018-08-23T03:15:42.002Z,18.8
2018-08-23T03:16:41.996Z,18.86
2018-08-23T03:17:41.978Z,18.76
2018-08-23T03:18:41.706Z,18.8
2018-08-23T03:19:41.956Z,18.7
2018-08-23T03:20:41.951Z,18.8
2018-08-23T03:21:41.675Z,18.74
2018-08-23T03:22:42.200Z,18.74
2018-08-23T03:23:42.179Z,18.68
2018-08-23T03:24:41.903Z,18.67
2018-08-23T03:25:41.635Z,18.59
2018-08-23T03:26:41.891Z,18.62
2018-08-23T03:27:41.880Z,18.61
2018-08-23T03:28:41.595Z,18.62
2018-08-23T03:29:41.848Z,18.57
2018-08-23T03:30:41.844Z,18.54
2018-08-23T03:31:41.572Z,18.55
2018-08-23T03:32:42.090Z,18.54
2018-08-23T03:33:41.806Z,18.57
2018-08-23T03:34:42.065Z,18.57
2018-08-23T03:35:42.055Z,18.58
2018-08-23T03:36:41.515Z,18.54
2018-08-23T03:37:42.042Z,18.57
2018-08-23T03:38:41.752Z,18.55
2018-08-23T03:39:42.012Z,18.57
2018-08-23T03:40:41.995Z,18.54
2018-08-23T03:41:41.722Z,18.49
2018-08-23T03:42:41.975Z,18.46
2018-08-23T03:43:41.970Z,18.4
2018-08-23T03:44:41.993Z,18.42
2018-08-23T03:45:41.674Z,18.39
2018-08-23T03:46:41.925Z,18.37
2018-08-23T03:47:41.652Z,18.29
2018-08-23T03:48:41.644Z,18.29
2018-08-23T03:49:41.375Z,18.34
2018-08-23T03:50:41.618Z,18.29
2018-08-23T03:51:41.867Z,18.31
2018-08-23T03:52:41.739Z,18.36
2018-08-23T03:53:41.852Z,18.31
2018-08-23T03:54:41.312Z,18.28
2018-08-23T03:55:41.571Z,18.28
2018-08-23T03:56:41.825Z,18.31
2018-08-23T03:57:41.540Z,18.24
2018-08-23T03:58:41.535Z,18.24
2018-08-23T03:59:41.523Z,18.28
2018-08-23T04:00:41.515Z,18.25
2018-08-23T04:01:41.767Z,18.34
2018-08-23T04:02:41.486Z,18.29
2018-08-23T04:03:41.216Z,18.24
2018-08-23T04:04:41.471Z,18.22
2018-08-23T04:05:41.199Z,18.24
2018-08-23T04:06:41.499Z,18.19
2018-08-23T04:07:41.451Z,18.21
2018-08-23T04:08:41.689Z,18.22
2018-08-23T04:09:41.152Z,18.18
2018-08-23T04:10:41.133Z,18.22
2018-08-23T04:11:41.654Z,18.21
2018-08-23T04:12:41.374Z,18.27
2018-08-23T04:13:41.114Z,18.27
2018-08-23T04:14:41.103Z,18.27
2018-08-23T04:15:41.626Z,18.21
2018-08-23T04:16:41.332Z,18.15
2018-08-23T04:17:41.057Z,18.21
2018-08-23T04:18:41.310Z,18.18
2018-08-23T04:19:41.302Z,18.18
2018-08-23T04:20:41.291Z,18.13
2018-08-23T04:21:41.543Z,18.15
2018-08-23T04:22:41.340Z,18.17
2018-08-23T04:23:41.262Z,18.19
2018-08-23T04:24:41.245Z,18.12
2018-08-23T04:25:41.233Z,18.15
2018-08-23T04:26:40.959Z,18.12
2018-08-23T04:27:41.214Z,18.13
2018-08-23T04:28:41.209Z,18.07
2018-08-23T04:29:41.190Z,18.19
2018-08-23T04:30:41.441Z,18.1
2018-08-23T04:31:40.904Z,18.1
2018-08-23T04:32:41.149Z,18.19
2018-08-23T04:33:40.880Z,18.12
2018-08-23T04:34:41.129Z,18.17
2018-08-23T04:35:41.122Z,18.15
2018-08-23T04:36:40.843Z,18.15
2018-08-23T04:37:41.101Z,18.12
2018-08-23T04:38:40.830Z,18.17
2018-08-23T04:39:40.815Z,18.1
2018-08-23T04:40:41.072Z,18.15
2018-08-23T04:41:41.057Z,18.19
2018-08-23T04:42:41.307Z,18.13
2018-08-23T04:43:40.770Z,18.13
2018-08-23T04:44:41.035Z,18.1
2018-08-23T04:45:41.006Z,18.19
2018-08-23T04:46:40.994Z,18.12
2018-08-23T04:47:40.986Z,18.18
2018-08-23T04:48:40.971Z,18.15
2018-08-23T04:49:40.708Z,18.13
2018-08-23T04:50:41.226Z,18.09
2018-08-23T04:51:41.299Z,18.1
2018-08-23T04:52:40.931Z,18.1
2018-08-23T04:53:40.926Z,18.07
2018-08-23T04:54:41.167Z,18.09
2018-08-23T04:55:41.170Z,18.12
2018-08-23T04:56:41.143Z,18.06
2018-08-23T04:57:40.879Z,18.13
2018-08-23T04:58:40.864Z,18.1
2018-08-23T04:59:41.115Z,18.07
2018-08-23T05:00:41.112Z,18.09
2018-08-23T05:01:41.095Z,18.19
2018-08-23T05:02:40.819Z,18.17
2018-08-23T05:03:40.811Z,18.03
2018-08-23T05:04:40.807Z,18.1
2018-08-23T05:05:40.786Z,18.09
2018-08-23T05:06:40.782Z,18.17
2018-08-23T05:07:40.769Z,18.15
2018-08-23T05:08:40.487Z,18.15
2018-08-23T05:09:41.003Z,18.17
2018-08-23T05:10:40.730Z,18.07
2018-08-23T05:11:40.768Z,18.1
2018-08-23T05:12:40.972Z,18.13
2018-08-23T05:13:40.698Z,18.1
2018-08-23T05:14:40.681Z,18.22
2018-08-23T05:15:40.932Z,18.15
2018-08-23T05:16:40.661Z,18.18
2018-08-23T05:17:40.653Z,18.18
2018-08-23T05:18:40.659Z,18.19
2018-08-23T05:19:40.627Z,18.18
2018-08-23T05:20:40.353Z,18.18
2018-08-23T05:21:40.601Z,18.27
2018-08-23T05:22:40.594Z,18.28
2018-08-23T05:23:40.581Z,18.24
2018-08-23T05:24:40.299Z,18.27
2018-08-23T05:25:40.553Z,18.27
2018-08-23T05:26:40.541Z,18.34
2018-08-23T05:27:40.535Z,18.37
2018-08-23T05:28:40.788Z,18.37
2018-08-23T05:29:40.305Z,18.34
2018-08-23T05:30:40.763Z,18.37
2018-08-23T05:31:40.488Z,18.39
2018-08-23T05:32:40.743Z,18.44
2018-08-23T05:33:40.730Z,18.44
2018-08-23T05:34:40.453Z,18.5
2018-08-23T05:35:40.707Z,18.52
2018-08-23T05:36:40.691Z,18.52
2018-08-23T05:37:40.695Z,18.52
2018-08-23T05:38:40.412Z,18.55
2018-08-23T05:39:40.668Z,18.54
2018-08-23T05:40:40.387Z,18.65
2018-08-23T05:41:40.115Z,18.54
2018-08-23T05:42:40.364Z,18.67
2018-08-23T05:43:40.358Z,18.59
2018-08-23T05:44:40.345Z,18.67
2018-08-23T05:45:40.329Z,18.74
2018-08-23T05:46:40.325Z,18.59
2018-08-23T05:47:40.440Z,18.62
2018-08-23T05:48:40.307Z,18.67
2018-08-23T05:49:40.293Z,18.67
2018-08-23T05:50:40.538Z,18.74
2018-08-23T05:51:40.528Z,18.73
2018-08-23T05:52:40.252Z,18.82
2018-08-23T05:53:40.507Z,18.74
2018-08-23T05:54:40.495Z,18.72
2018-08-23T05:55:39.960Z,18.8
2018-08-23T05:56:39.944Z,18.8
2018-08-23T05:57:39.934Z,18.76
2018-08-23T05:58:40.462Z,18.86
2018-08-23T05:59:40.437Z,18.91
2018-08-23T06:00:40.438Z,18.94
2018-08-23T06:01:40.157Z,18.92
2018-08-23T06:02:39.918Z,18.8
2018-08-23T06:03:40.141Z,18.98
2018-08-23T06:04:40.127Z,18.98
2018-08-23T06:05:40.388Z,19.1
2018-08-23T06:06:40.101Z,19.05
2018-08-23T06:07:40.090Z,19.06
2018-08-23T06:08:40.083Z,19.14
2018-08-23T06:09:39.855Z,19.13
2018-08-23T06:10:40.322Z,19.23
2018-08-23T06:11:40.317Z,19.18
2018-08-23T06:12:40.036Z,19.28
2018-08-23T06:13:40.023Z,19.33
2018-08-23T06:14:40.016Z,19.32
2018-08-23T06:15:40.007Z,19.32
2018-08-23T06:16:39.993Z,19.36
2018-08-23T06:17:39.985Z,19.36
2018-08-23T06:18:39.970Z,19.42
2018-08-23T06:19:39.963Z,19.43
2018-08-23T06:20:40.524Z,19.48
2018-08-23T06:21:39.957Z,19.55
2018-08-23T06:22:39.935Z,19.51
2018-08-23T06:23:39.658Z,19.66
2018-08-23T06:24:39.915Z,19.61
2018-08-23T06:25:40.174Z,19.7
2018-08-23T06:26:40.163Z,19.69
2018-08-23T06:27:40.083Z,19.79
2018-08-23T06:28:40.145Z,19.84
2018-08-23T06:29:40.142Z,19.9
2018-08-23T06:30:39.851Z,19.91
2018-08-23T06:31:40.104Z,20.02
2018-08-23T06:32:39.883Z,20.06
2018-08-23T06:33:40.312Z,20.09
2018-08-23T06:34:39.813Z,20.12
2018-08-23T06:35:39.940Z,20.2
2018-08-23T06:36:39.784Z,20.13
2018-08-23T06:37:39.512Z,20.25
2018-08-23T06:38:39.850Z,20.28
2018-08-23T06:39:39.762Z,20.3
2018-08-23T06:40:40.004Z,20.27
2018-08-23T06:41:39.476Z,20.38
2018-08-23T06:42:39.996Z,20.41
2018-08-23T06:43:39.988Z,20.49
2018-08-23T06:44:40.197Z,20.58
2018-08-23T06:45:39.956Z,20.66
2018-08-23T06:46:39.961Z,20.69
2018-08-23T06:47:39.942Z,20.69
2018-08-23T06:48:39.937Z,20.77
2018-08-23T06:49:39.394Z,20.81
2018-08-23T06:50:39.911Z,20.87
2018-08-23T06:51:39.905Z,20.89
2018-08-23T06:52:39.360Z,20.87
2018-08-23T06:53:39.350Z,20.95
2018-08-23T06:54:40.072Z,21.01
2018-08-23T06:55:39.867Z,21.06
2018-08-23T06:56:39.863Z,21.11
2018-08-23T06:57:39.312Z,21.05
2018-08-23T06:58:39.570Z,21.09
2018-08-23T06:59:39.831Z,21.21
2018-08-23T07:00:39.548Z,21.2
2018-08-23T07:01:39.810Z,21.2
2018-08-23T07:02:39.800Z,21.21
2018-08-23T07:03:39.259Z,21.21
2018-08-23T07:04:39.783Z,21.24
2018-08-23T07:05:39.246Z,21.27
2018-08-23T07:06:39.240Z,21.27
2018-08-23T07:07:39.490Z,21.35
2018-08-23T07:08:39.208Z,21.27
2018-08-23T07:09:39.468Z,21.3
2018-08-23T07:10:39.500Z,21.29
2018-08-23T07:11:39.885Z,21.24
2018-08-23T07:12:39.439Z,21.29
2018-08-23T07:13:39.438Z,21.21
2018-08-23T07:14:39.682Z,21.24
2018-08-23T07:15:39.419Z,21.2
2018-08-23T07:16:39.668Z,21.23
2018-08-23T07:17:39.657Z,21.26
2018-08-23T07:18:39.648Z,21.24
2018-08-23T07:19:39.375Z,21.27
2018-08-23T07:20:39.372Z,21.27
2018-08-23T07:21:39.095Z,21.27
2018-08-23T07:22:39.753Z,21.36
2018-08-23T07:23:39.073Z,21.35
2018-08-23T07:24:39.599Z,21.32
2018-08-23T07:25:39.055Z,21.42
2018-08-23T07:26:39.665Z,21.41
2018-08-23T07:27:39.302Z,21.42
2018-08-23T07:28:39.302Z,21.36
2018-08-23T07:29:39.550Z,21.48
2018-08-23T07:30:39.537Z,21.51
2018-08-23T07:31:39.267Z,21.57
2018-08-23T07:32:39.257Z,21.54
2018-08-23T07:33:39.284Z,21.59
2018-08-23T07:34:39.234Z,21.53
2018-08-23T07:35:38.964Z,21.59
2018-08-23T07:36:39.490Z,21.71
2018-08-23T07:37:39.208Z,21.59
2018-08-23T07:38:39.200Z,21.67
2018-08-23T07:39:39.466Z,21.64
2018-08-23T07:40:39.518Z,21.76
2018-08-23T07:41:39.171Z,21.82
2018-08-23T07:42:39.167Z,21.78
2018-08-23T07:43:39.155Z,21.75
2018-08-23T07:44:39.151Z,21.85
2018-08-23T07:45:39.400Z,21.91
2018-08-23T07:46:39.128Z,21.95
2018-08-23T07:47:39.383Z,21.99
2018-08-23T07:48:39.249Z,22.01
2018-08-23T07:49:39.375Z,22.06
2018-08-23T07:50:39.369Z,22.06
2018-08-23T07:51:39.084Z,22.01
2018-08-23T07:52:39.435Z,22.13
2018-08-23T07:53:38.802Z,22.06
2018-08-23T07:54:39.340Z,22.2
2018-08-23T07:55:39.311Z,22.22
2018-08-23T07:56:39.040Z,22.27
2018-08-23T07:57:39.031Z,22.29
2018-08-23T07:58:39.030Z,22.32
2018-08-23T07:59:39.014Z,22.34
2018-08-23T08:00:39.295Z,22.28
2018-08-23T08:01:39.259Z,22.43
2018-08-23T08:02:38.994Z,22.49
2018-08-23T08:03:38.981Z,22.43
2018-08-23T08:04:38.710Z,22.59
2018-08-23T08:05:38.957Z,22.71
2018-08-23T08:06:38.957Z,22.69
2018-08-23T08:07:39.204Z,22.72
2018-08-23T08:08:39.197Z,22.71
2018-08-23T08:09:38.928Z,22.74
2018-08-23T08:10:38.917Z,22.77
2018-08-23T08:11:38.916Z,22.71
2018-08-23T08:12:39.200Z,22.72
2018-08-23T08:13:38.906Z,22.75
2018-08-23T08:14:39.157Z,22.86
2018-08-23T08:15:38.880Z,22.9
2018-08-23T08:16:38.602Z,22.96
2018-08-23T08:17:39.123Z,23.07
2018-08-23T08:18:38.849Z,23.14
2018-08-23T08:19:39.161Z,23.11
2018-08-23T08:20:38.841Z,23.2
2018-08-23T08:21:39.160Z,23.24
2018-08-23T08:22:38.821Z,23.14
2018-08-23T08:23:39.082Z,23.26
2018-08-23T08:24:38.533Z,23.29
2018-08-23T08:25:38.794Z,23.27
2018-08-23T08:26:38.806Z,23.38
2018-08-23T08:27:38.779Z,23.38
2018-08-23T08:28:38.510Z,23.42
2018-08-23T08:29:39.026Z,23.61
2018-08-23T08:30:39.021Z,23.82
2018-08-23T08:31:38.745Z,23.92
2018-08-23T08:32:38.471Z,24
2018-08-23T08:33:38.991Z,23.97
2018-08-23T08:34:38.508Z,23.95
2018-08-23T08:35:38.978Z,24.02
2018-08-23T08:36:38.703Z,24.05
2018-08-23T08:37:38.696Z,24.19
2018-08-23T08:38:38.704Z,24.16
2018-08-23T08:39:38.945Z,24.27
2018-08-23T08:40:38.674Z,24.29
2018-08-23T08:41:38.672Z,24.38
2018-08-23T08:42:38.665Z,24.37
2018-08-23T08:43:38.916Z,24.41
2018-08-23T08:44:38.961Z,24.37
2018-08-23T08:45:38.913Z,24.42
2018-08-23T08:46:38.899Z,24.45
2018-08-23T08:47:38.627Z,24.47
2018-08-23T08:48:38.371Z,24.49
2018-08-23T08:49:38.662Z,24.53
2018-08-23T08:50:38.492Z,24.54
2018-08-23T08:51:39.063Z,24.54
2018-08-23T08:52:38.585Z,24.6
2018-08-23T08:53:38.586Z,24.63
2018-08-23T08:54:38.513Z,24.63
2018-08-23T08:55:38.833Z,24.67
2018-08-23T08:56:38.868Z,24.67
2018-08-23T08:57:38.631Z,24.6
2018-08-23T08:58:38.559Z,24.61
2018-08-23T08:59:38.276Z,24.75
2018-08-23T09:00:38.270Z,24.79
2018-08-23T09:01:38.529Z,24.73
2018-08-23T09:02:38.524Z,24.75
2018-08-23T09:03:38.520Z,24.75
2018-08-23T09:04:38.819Z,24.79
2018-08-23T09:05:38.233Z,24.82
2018-08-23T09:06:38.225Z,24.77
2018-08-23T09:07:38.483Z,24.75
2018-08-23T09:08:38.215Z,24.67
2018-08-23T09:09:38.525Z,24.61
2018-08-23T09:10:38.732Z,24.64
2018-08-23T09:11:38.733Z,24.56
2018-08-23T09:12:38.446Z,24.57
2018-08-23T09:13:38.705Z,24.67
2018-08-23T09:14:38.176Z,24.82
2018-08-23T09:15:38.432Z,24.87
2018-08-23T09:16:38.420Z,24.94
2018-08-23T09:17:38.416Z,25
2018-08-23T09:18:38.764Z,25.09
2018-08-23T09:19:38.401Z,25.13
2018-08-23T09:20:38.708Z,25.28
2018-08-23T09:21:38.399Z,25.31
2018-08-23T09:22:38.117Z,25.32
2018-08-23T09:23:38.643Z,25.37
2018-08-23T09:24:38.641Z,25.44
2018-08-23T09:25:38.363Z,25.46
2018-08-23T09:26:38.355Z,25.43
2018-08-23T09:27:38.356Z,25.42
2018-08-23T09:28:38.346Z,25.43
2018-08-23T09:29:38.343Z,25.3
2018-08-23T09:30:38.616Z,25.46
2018-08-23T09:31:38.327Z,25.46
2018-08-23T09:32:38.321Z,25.46
2018-08-23T09:33:38.318Z,25.37
2018-08-23T09:34:38.306Z,25.34
2018-08-23T09:35:38.574Z,25.35
2018-08-23T09:36:38.301Z,25.34
2018-08-23T09:37:38.292Z,25.42
2018-08-23T09:38:38.555Z,25.49
2018-08-23T09:39:38.021Z,25.46
2018-08-23T09:40:38.274Z,25.49
2018-08-23T09:41:38.558Z,25.49
2018-08-23T09:42:38.262Z,25.46
2018-08-23T09:43:38.521Z,25.47
2018-08-23T09:44:38.252Z,25.43
2018-08-23T09:45:38.510Z,25.44
2018-08-23T09:46:38.250Z,25.43
2018-08-23T09:47:38.500Z,25.46
2018-08-23T09:48:38.227Z,25.64
2018-08-23T09:49:38.219Z,25.67
2018-08-23T09:50:38.646Z,25.71
2018-08-23T09:51:38.206Z,25.62
2018-08-23T09:52:37.930Z,25.72
2018-08-23T09:53:37.929Z,25.74
2018-08-23T09:54:38.189Z,25.71
2018-08-23T09:55:38.190Z,25.71
2018-08-23T09:56:38.597Z,25.59
2018-08-23T09:57:38.441Z,25.59
2018-08-23T09:58:37.908Z,25.64
2018-08-23T09:59:38.421Z,25.71
2018-08-23T10:00:38.151Z,25.77
2018-08-23T10:01:37.880Z,25.82
2018-08-23T10:02:37.877Z,25.9
2018-08-23T10:03:37.866Z,26.04
2018-08-23T10:04:38.578Z,26.09
2018-08-23T10:05:38.391Z,26.2
2018-08-23T10:06:38.117Z,26.21
2018-08-23T10:07:38.115Z,26.22
2018-08-23T10:08:38.100Z,26.29
2018-08-23T10:09:38.098Z,26.31
2018-08-23T10:10:37.878Z,26.43
2018-08-23T10:11:38.824Z,26.39
2018-08-23T10:12:38.346Z,26.39
2018-08-23T10:13:38.071Z,26.39
2018-08-23T10:14:38.333Z,26.47
2018-08-23T10:15:38.328Z,26.39
2018-08-23T10:16:38.060Z,26.31
2018-08-23T10:17:38.317Z,26.29
2018-08-23T10:18:38.307Z,26.39
2018-08-23T10:19:38.041Z,26.46
2018-08-23T10:20:38.301Z,26.59
2018-08-23T10:21:38.030Z,26.68
2018-08-23T10:22:38.023Z,26.8
2018-08-23T10:23:37.756Z,26.84
2018-08-23T10:24:38.280Z,26.77
2018-08-23T10:25:38.280Z,26.8
2018-08-23T10:26:38.448Z,26.8
2018-08-23T10:27:38.266Z,26.73
2018-08-23T10:28:37.992Z,26.68
2018-08-23T10:29:37.984Z,26.69
2018-08-23T10:30:38.247Z,26.8
2018-08-23T10:31:37.711Z,26.74
2018-08-23T10:32:37.973Z,26.69
2018-08-23T10:33:37.702Z,26.69
2018-08-23T10:34:37.694Z,26.8
2018-08-23T10:35:37.690Z,26.87
2018-08-23T10:36:37.956Z,26.92
2018-08-23T10:37:37.954Z,26.84
2018-08-23T10:38:37.940Z,26.96
2018-08-23T10:39:37.931Z,26.99
2018-08-23T10:40:38.199Z,26.91
2018-08-23T10:41:38.191Z,27.01
2018-08-23T10:42:37.929Z,27.06
2018-08-23T10:43:38.180Z,27.14
2018-08-23T10:44:38.033Z,27.11
2018-08-23T10:45:37.636Z,27.14
2018-08-23T10:46:37.894Z,27.02
2018-08-23T10:47:38.161Z,26.95
2018-08-23T10:48:37.887Z,26.83
2018-08-23T10:49:38.144Z,26.83
2018-08-23T10:50:38.012Z,26.76
2018-08-23T10:51:37.877Z,26.76
2018-08-23T10:52:37.879Z,26.69
2018-08-23T10:53:37.873Z,26.62
2018-08-23T10:54:38.059Z,26.61
2018-08-23T10:55:37.850Z,26.65
2018-08-23T10:56:37.850Z,26.65
2018-08-23T10:57:37.845Z,26.57
2018-08-23T10:58:37.599Z,26.55
2018-08-23T10:59:37.844Z,26.58
2018-08-23T11:00:37.838Z,26.54
2018-08-23T11:01:37.555Z,26.52
2018-08-23T11:02:38.097Z,26.77
2018-08-23T11:03:38.075Z,26.83
2018-08-23T11:04:37.806Z,26.96
2018-08-23T11:05:37.537Z,27.16
2018-08-23T11:06:37.796Z,27.26
2018-08-23T11:07:38.053Z,27.43
2018-08-23T11:08:37.788Z,27.7
2018-08-23T11:09:37.861Z,28.06
2018-08-23T11:10:38.044Z,28.31
2018-08-23T11:11:37.774Z,28.44
2018-08-23T11:12:38.026Z,28.72
2018-08-23T11:13:38.046Z,28.7
2018-08-23T11:14:38.026Z,28.88
2018-08-23T11:15:38.023Z,28.93
2018-08-23T11:16:38.156Z,29.15
2018-08-23T11:17:38.013Z,29.1
2018-08-23T11:18:38.013Z,29.18
2018-08-23T11:19:37.744Z,29.37
2018-08-23T11:20:37.736Z,29.49
2018-08-23T11:21:38.004Z,29.65
2018-08-23T11:22:37.742Z,29.82
2018-08-23T11:23:37.747Z,29.99
2018-08-23T11:24:37.474Z,30.09
2018-08-23T11:25:37.737Z,30.21
2018-08-23T11:26:37.471Z,30.37
2018-08-23T11:27:37.734Z,30.45
2018-08-23T11:28:37.736Z,30.56
2018-08-23T11:29:37.982Z,30.76
2018-08-23T11:30:37.523Z,31.11
2018-08-23T11:31:38.005Z,31.15
2018-08-23T11:32:37.749Z,31.18
2018-08-23T11:33:37.747Z,31.35
2018-08-23T11:34:37.744Z,31.48
2018-08-23T11:35:37.485Z,31.61
2018-08-23T11:36:38.021Z,31.8
2018-08-23T11:37:37.488Z,31.73
2018-08-23T11:38:38.017Z,31.75
2018-08-23T11:39:38.019Z,31.72
2018-08-23T11:40:37.763Z,31.65
2018-08-23T11:41:38.026Z,31.3
2018-08-23T11:42:37.561Z,31.58
2018-08-23T11:43:37.772Z,31.77
2018-08-23T11:44:38.037Z,31.84
2018-08-23T11:45:37.776Z,32.03
2018-08-23T11:46:37.780Z,31.93
2018-08-23T11:47:37.782Z,31.5
2018-08-23T11:48:38.053Z,31.64
2018-08-23T11:49:37.795Z,31.77
2018-08-23T11:50:37.534Z,32.03
2018-08-23T11:51:37.792Z,31.68
2018-08-23T11:52:38.063Z,31.76
2018-08-23T11:53:39.246Z,32.11
2018-08-23T11:54:38.071Z,32.48
2018-08-23T11:55:38.126Z,32.7
2018-08-23T11:56:37.813Z,32.92
2018-08-23T11:57:38.079Z,32.85
2018-08-23T11:58:38.201Z,32.98
2018-08-23T11:59:38.083Z,32.96
2018-08-23T12:00:37.827Z,33.13
2018-08-23T12:01:37.830Z,32.84
2018-08-23T12:02:37.859Z,32.93
2018-08-23T12:03:37.583Z,32.91
2018-08-23T12:04:37.850Z,32.66
2018-08-23T12:05:37.588Z,32.71
2018-08-23T12:06:38.321Z,32.81
2018-08-23T12:07:37.862Z,32.79
2018-08-23T12:08:38.137Z,32.44
2018-08-23T12:09:38.140Z,32.47
2018-08-23T12:10:37.872Z,32.39
2018-08-23T12:11:37.879Z,32.42
2018-08-23T12:12:37.877Z,32.44
2018-08-23T12:13:37.886Z,32.67
2018-08-23T12:14:38.153Z,32.57
2018-08-23T12:15:37.682Z,32.64
2018-08-23T12:16:37.911Z,32.47
2018-08-23T12:17:38.168Z,32.49
2018-08-23T12:18:38.173Z,32.4
2018-08-23T12:19:37.651Z,32.47
2018-08-23T12:20:38.178Z,32.52
2018-08-23T12:21:37.915Z,32.99
2018-08-23T12:22:37.937Z,33.31
2018-08-23T12:23:37.932Z,33.42
2018-08-23T12:24:37.933Z,33.49
2018-08-23T12:25:37.699Z,33.29
2018-08-23T12:26:38.326Z,32.91
2018-08-23T12:27:37.946Z,33.04
2018-08-23T12:28:37.955Z,33.1
2018-08-23T12:29:37.736Z,33.04
2018-08-23T12:30:37.956Z,32.96
2018-08-23T12:31:38.449Z,33.14
2018-08-23T12:32:37.971Z,33.1
2018-08-23T12:33:37.708Z,33.27
2018-08-23T12:34:37.712Z,33.13
2018-08-23T12:35:37.991Z,32.95
2018-08-23T12:36:37.993Z,33.08
2018-08-23T12:37:38.068Z,33.17
2018-08-23T12:38:38.008Z,32.92
2018-08-23T12:39:37.995Z,32.81
2018-08-23T12:40:38.000Z,32.77
2018-08-23T12:41:38.275Z,32.84
2018-08-23T12:42:37.828Z,33.07
2018-08-23T12:43:38.216Z,33.45
2018-08-23T12:44:37.797Z,33.6
2018-08-23T12:45:38.289Z,33.41
2018-08-23T12:46:37.761Z,33.31
2018-08-23T12:47:38.029Z,32.93
2018-08-23T12:48:37.766Z,32.64
2018-08-23T12:49:38.447Z,31.95
2018-08-23T12:50:37.778Z,31.46
2018-08-23T12:51:38.041Z,31.21
2018-08-23T12:52:38.049Z,30.62
2018-08-23T12:53:37.831Z,30.29
2018-08-23T12:54:37.990Z,30.19
2018-08-23T12:55:38.063Z,30.53